sensor_id;sensor_type;location;lat;lon;timestamp;P1;durP1;ratioP1;P2;durP2;ratioP2
75823;SDS011;64457;51.976;9.834;2023-05-20T00:01:23;8.70;;;2.87;;
75823;SDS011;64457;51.976;9.834;2023-05-20T00:03:50;7.70;;;2.80;;
75823;SDS011;64457;51.976;9.834;2023-05-20T00:06:18;8.97;;;2.67;;
75823;SDS011;64457;51.976;9.834;2023-05-20T00:08:45;8.73;;;2.60;;
75823;SDS011;64457;51.976;9.834;2023-05-20T00:11:13;10.23;;;3.03;;
75823;SDS011;64457;51.976;9.834;2023-05-20T00:13:41;7.90;;;2.67;;
75823;SDS011;64457;51.976;9.834;2023-05-20T00:16:08;9.10;;;2.90;;
75823;SDS011;64457;51.976;9.834;2023-05-20T00:18:37;9.30;;;2.63;;
75823;SDS011;64457;51.976;9.834;2023-05-20T00:21:05;11.60;;;3.20;;
75823;SDS011;64457;51.976;9.834;2023-05-20T00:23:32;7.97;;;2.80;;
75823;SDS011;64457;51.976;9.834;2023-05-20T00:26:00;9.50;;;2.93;;
75823;SDS011;64457;51.976;9.834;2023-05-20T00:28:27;8.60;;;3.00;;
75823;SDS011;64457;51.976;9.834;2023-05-20T00:30:55;8.37;;;3.00;;
75823;SDS011;64457;51.976;9.834;2023-05-20T00:33:22;9.40;;;3.00;;
75823;SDS011;64457;51.976;9.834;2023-05-20T00:35:51;8.00;;;2.97;;
75823;SDS011;64457;51.976;9.834;2023-05-20T00:38:19;7.87;;;2.67;;
75823;SDS011;64457;51.976;9.834;2023-05-20T00:40:47;8.00;;;2.80;;
75823;SDS011;64457;51.976;9.834;2023-05-20T00:43:15;8.70;;;3.00;;
75823;SDS011;64457;51.976;9.834;2023-05-20T00:45:44;12.00;;;3.00;;
75823;SDS011;64457;51.976;9.834;2023-05-20T00:48:12;9.57;;;3.40;;
75823;SDS011;64457;51.976;9.834;2023-05-20T00:50:40;10.60;;;2.97;;
75823;SDS011;64457;51.976;9.834;2023-05-20T00:53:09;9.40;;;3.33;;
75823;SDS011;64457;51.976;9.834;2023-05-20T00:55:38;10.77;;;3.30;;
75823;SDS011;64457;51.976;9.834;2023-05-20T00:58:05;8.47;;;3.23;;
75823;SDS011;64457;51.976;9.834;2023-05-20T01:00:33;14.93;;;3.30;;
75823;SDS011;64457;51.976;9.834;2023-05-20T01:03:00;10.93;;;3.10;;
75823;SDS011;64457;51.976;9.834;2023-05-20T01:05:28;11.10;;;3.33;;
75823;SDS011;64457;51.976;9.834;2023-05-20T01:07:55;10.90;;;3.70;;
75823;SDS011;64457;51.976;9.834;2023-05-20T01:10:25;10.70;;;3.27;;
75823;SDS011;64457;51.976;9.834;2023-05-20T01:12:56;9.90;;;3.60;;
75823;SDS011;64457;51.976;9.834;2023-05-20T01:15:27;14.90;;;4.00;;
75823;SDS011;64457;51.976;9.834;2023-05-20T01:17:56;9.30;;;3.10;;
75823;SDS011;64457;51.976;9.834;2023-05-20T01:20:30;9.57;;;3.47;;
75823;SDS011;64457;51.976;9.834;2023-05-20T01:23:00;9.80;;;3.63;;
75823;SDS011;64457;51.976;9.834;2023-05-20T01:25:27;10.20;;;3.40;;
75823;SDS011;64457;51.976;9.834;2023-05-20T01:27:55;10.17;;;3.80;;
75823;SDS011;64457;51.976;9.834;2023-05-20T01:30:24;8.97;;;3.27;;
75823;SDS011;64457;51.976;9.834;2023-05-20T01:32:57;8.90;;;3.37;;
75823;SDS011;64457;51.976;9.834;2023-05-20T01:35:27;10.20;;;3.30;;
75823;SDS011;64457;51.976;9.834;2023-05-20T01:37:56;10.17;;;3.90;;
75823;SDS011;64457;51.976;9.834;2023-05-20T01:40:27;10.67;;;3.33;;
75823;SDS011;64457;51.976;9.834;2023-05-20T01:42:55;8.67;;;3.40;;
75823;SDS011;64457;51.976;9.834;2023-05-20T01:45:24;10.33;;;3.40;;
75823;SDS011;64457;51.976;9.834;2023-05-20T01:47:51;8.87;;;3.60;;
75823;SDS011;64457;51.976;9.834;2023-05-20T01:50:19;8.70;;;3.20;;
75823;SDS011;64457;51.976;9.834;2023-05-20T01:52:46;9.50;;;3.87;;
75823;SDS011;64457;51.976;9.834;2023-05-20T01:55:15;11.20;;;3.23;;
75823;SDS011;64457;51.976;9.834;2023-05-20T01:57:43;10.90;;;3.40;;
75823;SDS011;64457;51.976;9.834;2023-05-20T02:00:11;9.50;;;3.57;;
75823;SDS011;64457;51.976;9.834;2023-05-20T02:02:40;8.40;;;3.33;;
75823;SDS011;64457;51.976;9.834;2023-05-20T02:05:07;17.10;;;3.40;;
75823;SDS011;64457;51.976;9.834;2023-05-20T02:07:35;9.33;;;3.73;;
75823;SDS011;64457;51.976;9.834;2023-05-20T02:10:03;12.00;;;3.77;;
75823;SDS011;64457;51.976;9.834;2023-05-20T02:12:33;14.20;;;4.13;;
75823;SDS011;64457;51.976;9.834;2023-05-20T02:15:01;10.37;;;3.60;;
75823;SDS011;64457;51.976;9.834;2023-05-20T02:17:29;11.20;;;4.27;;
75823;SDS011;64457;51.976;9.834;2023-05-20T02:19:56;10.10;;;3.90;;
75823;SDS011;64457;51.976;9.834;2023-05-20T02:22:24;9.10;;;4.00;;
75823;SDS011;64457;51.976;9.834;2023-05-20T02:24:52;12.00;;;4.37;;
75823;SDS011;64457;51.976;9.834;2023-05-20T02:27:19;9.90;;;3.93;;
75823;SDS011;64457;51.976;9.834;2023-05-20T02:29:48;9.80;;;3.93;;
75823;SDS011;64457;51.976;9.834;2023-05-20T02:32:15;8.93;;;3.57;;
75823;SDS011;64457;51.976;9.834;2023-05-20T02:34:44;10.10;;;3.90;;
75823;SDS011;64457;51.976;9.834;2023-05-20T02:37:12;9.40;;;3.60;;
75823;SDS011;64457;51.976;9.834;2023-05-20T02:39:39;11.03;;;4.40;;
75823;SDS011;64457;51.976;9.834;2023-05-20T02:42:07;10.83;;;3.87;;
75823;SDS011;64457;51.976;9.834;2023-05-20T02:44:34;10.80;;;3.60;;
75823;SDS011;64457;51.976;9.834;2023-05-20T02:47:04;10.57;;;3.97;;
75823;SDS011;64457;51.976;9.834;2023-05-20T02:49:31;9.50;;;3.80;;
75823;SDS011;64457;51.976;9.834;2023-05-20T02:51:59;9.73;;;3.80;;
75823;SDS011;64457;51.976;9.834;2023-05-20T02:54:26;9.47;;;3.63;;
75823;SDS011;64457;51.976;9.834;2023-05-20T02:56:54;10.50;;;3.90;;
75823;SDS011;64457;51.976;9.834;2023-05-20T02:59:21;11.63;;;4.27;;
75823;SDS011;64457;51.976;9.834;2023-05-20T03:01:49;11.77;;;4.60;;
75823;SDS011;64457;51.976;9.834;2023-05-20T03:04:18;9.57;;;3.73;;
75823;SDS011;64457;51.976;9.834;2023-05-20T03:06:49;13.80;;;4.43;;
75823;SDS011;64457;51.976;9.834;2023-05-20T03:09:18;10.07;;;4.27;;
75823;SDS011;64457;51.976;9.834;2023-05-20T03:11:45;11.20;;;4.20;;
75823;SDS011;64457;51.976;9.834;2023-05-20T03:14:13;9.60;;;4.23;;
75823;SDS011;64457;51.976;9.834;2023-05-20T03:16:41;12.87;;;4.47;;
75823;SDS011;64457;51.976;9.834;2023-05-20T03:19:08;14.37;;;4.37;;
75823;SDS011;64457;51.976;9.834;2023-05-20T03:21:37;10.13;;;4.67;;
75823;SDS011;64457;51.976;9.834;2023-05-20T03:24:05;10.70;;;4.30;;
75823;SDS011;64457;51.976;9.834;2023-05-20T03:26:33;17.33;;;4.50;;
75823;SDS011;64457;51.976;9.834;2023-05-20T03:29:01;10.40;;;4.00;;
75823;SDS011;64457;51.976;9.834;2023-05-20T03:31:31;13.43;;;4.53;;
75823;SDS011;64457;51.976;9.834;2023-05-20T03:33:58;9.43;;;4.13;;
75823;SDS011;64457;51.976;9.834;2023-05-20T03:36:26;10.30;;;4.50;;
75823;SDS011;64457;51.976;9.834;2023-05-20T03:38:55;11.20;;;4.63;;
75823;SDS011;64457;51.976;9.834;2023-05-20T03:41:22;10.63;;;4.27;;
75823;SDS011;64457;51.976;9.834;2023-05-20T03:43:50;11.83;;;4.70;;
75823;SDS011;64457;51.976;9.834;2023-05-20T03:46:18;14.40;;;4.90;;
75823;SDS011;64457;51.976;9.834;2023-05-20T03:48:45;11.90;;;4.47;;
75823;SDS011;64457;51.976;9.834;2023-05-20T03:51:13;19.00;;;4.87;;
75823;SDS011;64457;51.976;9.834;2023-05-20T03:53:40;13.50;;;4.73;;
75823;SDS011;64457;51.976;9.834;2023-05-20T03:56:11;14.40;;;4.90;;
75823;SDS011;64457;51.976;9.834;2023-05-20T03:58:38;11.90;;;4.70;;
75823;SDS011;64457;51.976;9.834;2023-05-20T04:01:06;15.90;;;4.50;;
75823;SDS011;64457;51.976;9.834;2023-05-20T04:03:33;13.40;;;4.43;;
75823;SDS011;64457;51.976;9.834;2023-05-20T04:06:00;12.77;;;5.10;;
75823;SDS011;64457;51.976;9.834;2023-05-20T04:08:28;20.83;;;4.73;;
75823;SDS011;64457;51.976;9.834;2023-05-20T04:10:55;11.07;;;4.50;;
75823;SDS011;64457;51.976;9.834;2023-05-20T04:13:25;14.33;;;4.30;;
75823;SDS011;64457;51.976;9.834;2023-05-20T04:15:52;12.90;;;5.00;;
75823;SDS011;64457;51.976;9.834;2023-05-20T04:18:20;11.53;;;4.60;;
75823;SDS011;64457;51.976;9.834;2023-05-20T04:20:47;12.07;;;4.30;;
75823;SDS011;64457;51.976;9.834;2023-05-20T04:23:15;11.60;;;4.83;;
75823;SDS011;64457;51.976;9.834;2023-05-20T04:25:44;10.87;;;4.87;;
75823;SDS011;64457;51.976;9.834;2023-05-20T04:28:13;10.40;;;4.20;;
75823;SDS011;64457;51.976;9.834;2023-05-20T04:30:41;11.00;;;4.23;;
75823;SDS011;64457;51.976;9.834;2023-05-20T04:33:09;11.53;;;4.33;;
75823;SDS011;64457;51.976;9.834;2023-05-20T04:35:37;10.57;;;4.60;;
75823;SDS011;64457;51.976;9.834;2023-05-20T04:38:05;14.77;;;4.73;;
75823;SDS011;64457;51.976;9.834;2023-05-20T04:40:33;11.93;;;4.63;;
75823;SDS011;64457;51.976;9.834;2023-05-20T04:43:00;11.63;;;4.60;;
75823;SDS011;64457;51.976;9.834;2023-05-20T04:45:29;18.60;;;5.23;;
75823;SDS011;64457;51.976;9.834;2023-05-20T04:47:59;10.40;;;4.20;;
75823;SDS011;64457;51.976;9.834;2023-05-20T04:50:27;11.40;;;4.60;;
75823;SDS011;64457;51.976;9.834;2023-05-20T04:52:54;13.20;;;4.33;;
75823;SDS011;64457;51.976;9.834;2023-05-20T04:55:21;10.67;;;4.60;;
75823;SDS011;64457;51.976;9.834;2023-05-20T04:57:51;13.23;;;3.90;;
75823;SDS011;64457;51.976;9.834;2023-05-20T05:00:19;11.67;;;5.33;;
75823;SDS011;64457;51.976;9.834;2023-05-20T05:02:46;9.83;;;3.60;;
75823;SDS011;64457;51.976;9.834;2023-05-20T05:05:15;10.80;;;4.50;;
75823;SDS011;64457;51.976;9.834;2023-05-20T05:07:43;10.50;;;4.37;;
75823;SDS011;64457;51.976;9.834;2023-05-20T05:10:10;9.80;;;3.60;;
75823;SDS011;64457;51.976;9.834;2023-05-20T05:12:39;10.00;;;4.40;;
75823;SDS011;64457;51.976;9.834;2023-05-20T05:15:07;11.30;;;4.40;;
75823;SDS011;64457;51.976;9.834;2023-05-20T05:17:36;9.57;;;3.67;;
75823;SDS011;64457;51.976;9.834;2023-05-20T05:20:03;14.47;;;4.57;;
75823;SDS011;64457;51.976;9.834;2023-05-20T05:22:34;11.17;;;4.67;;
75823;SDS011;64457;51.976;9.834;2023-05-20T05:25:04;10.43;;;4.33;;
75823;SDS011;64457;51.976;9.834;2023-05-20T05:27:33;12.83;;;4.53;;
75823;SDS011;64457;51.976;9.834;2023-05-20T05:30:01;12.27;;;4.27;;
75823;SDS011;64457;51.976;9.834;2023-05-20T05:32:29;11.57;;;4.37;;
75823;SDS011;64457;51.976;9.834;2023-05-20T05:34:56;12.03;;;4.60;;
75823;SDS011;64457;51.976;9.834;2023-05-20T05:37:24;11.40;;;4.77;;
75823;SDS011;64457;51.976;9.834;2023-05-20T05:39:53;11.77;;;3.90;;
75823;SDS011;64457;51.976;9.834;2023-05-20T05:42:21;10.50;;;4.20;;
75823;SDS011;64457;51.976;9.834;2023-05-20T05:44:48;10.07;;;4.13;;
75823;SDS011;64457;51.976;9.834;2023-05-20T05:47:16;9.93;;;4.03;;
75823;SDS011;64457;51.976;9.834;2023-05-20T05:49:43;10.50;;;4.10;;
75823;SDS011;64457;51.976;9.834;2023-05-20T05:52:11;12.93;;;4.63;;
75823;SDS011;64457;51.976;9.834;2023-05-20T05:54:39;11.73;;;4.30;;
75823;SDS011;64457;51.976;9.834;2023-05-20T05:57:07;18.00;;;5.13;;
75823;SDS011;64457;51.976;9.834;2023-05-20T05:59:36;12.90;;;4.80;;
75823;SDS011;64457;51.976;9.834;2023-05-20T06:02:03;12.90;;;5.07;;
75823;SDS011;64457;51.976;9.834;2023-05-20T06:04:31;16.40;;;5.07;;
75823;SDS011;64457;51.976;9.834;2023-05-20T06:06:59;12.03;;;5.03;;
75823;SDS011;64457;51.976;9.834;2023-05-20T06:09:27;11.37;;;4.97;;
75823;SDS011;64457;51.976;9.834;2023-05-20T06:11:54;10.60;;;4.10;;
75823;SDS011;64457;51.976;9.834;2023-05-20T06:14:23;11.47;;;4.37;;
75823;SDS011;64457;51.976;9.834;2023-05-20T06:16:50;12.63;;;4.87;;
75823;SDS011;64457;51.976;9.834;2023-05-20T06:19:18;11.83;;;4.77;;
75823;SDS011;64457;51.976;9.834;2023-05-20T06:21:46;12.43;;;5.00;;
75823;SDS011;64457;51.976;9.834;2023-05-20T06:24:14;11.90;;;5.57;;
75823;SDS011;64457;51.976;9.834;2023-05-20T06:26:41;11.80;;;5.43;;
75823;SDS011;64457;51.976;9.834;2023-05-20T06:29:10;11.87;;;4.73;;
75823;SDS011;64457;51.976;9.834;2023-05-20T06:31:39;12.43;;;4.73;;
75823;SDS011;64457;51.976;9.834;2023-05-20T06:34:07;12.90;;;5.17;;
75823;SDS011;64457;51.976;9.834;2023-05-20T06:36:35;15.43;;;5.13;;
75823;SDS011;64457;51.976;9.834;2023-05-20T06:39:02;16.00;;;5.97;;
75823;SDS011;64457;51.976;9.834;2023-05-20T06:41:35;12.80;;;5.93;;
75823;SDS011;64457;51.976;9.834;2023-05-20T06:44:03;11.83;;;5.57;;
75823;SDS011;64457;51.976;9.834;2023-05-20T06:46:31;12.00;;;5.03;;
75823;SDS011;64457;51.976;9.834;2023-05-20T06:48:59;15.20;;;4.83;;
75823;SDS011;64457;51.976;9.834;2023-05-20T06:51:27;10.73;;;4.40;;
75823;SDS011;64457;51.976;9.834;2023-05-20T06:53:54;11.20;;;5.30;;
75823;SDS011;64457;51.976;9.834;2023-05-20T06:56:22;13.27;;;5.77;;
75823;SDS011;64457;51.976;9.834;2023-05-20T06:58:49;13.47;;;6.33;;
75823;SDS011;64457;51.976;9.834;2023-05-20T07:01:17;17.20;;;5.53;;
75823;SDS011;64457;51.976;9.834;2023-05-20T07:03:44;14.50;;;6.17;;
75823;SDS011;64457;51.976;9.834;2023-05-20T07:06:13;12.57;;;6.03;;
75823;SDS011;64457;51.976;9.834;2023-05-20T07:08:40;18.63;;;6.70;;
75823;SDS011;64457;51.976;9.834;2023-05-20T07:11:08;14.43;;;6.80;;
75823;SDS011;64457;51.976;9.834;2023-05-20T07:13:36;13.10;;;7.20;;
75823;SDS011;64457;51.976;9.834;2023-05-20T07:16:03;13.00;;;6.57;;
75823;SDS011;64457;51.976;9.834;2023-05-20T07:18:31;17.30;;;8.37;;
75823;SDS011;64457;51.976;9.834;2023-05-20T07:20:59;16.40;;;7.60;;
75823;SDS011;64457;51.976;9.834;2023-05-20T07:23:28;18.00;;;8.20;;
75823;SDS011;64457;51.976;9.834;2023-05-20T07:25:56;14.57;;;7.57;;
75823;SDS011;64457;51.976;9.834;2023-05-20T07:28:24;14.77;;;8.10;;
75823;SDS011;64457;51.976;9.834;2023-05-20T07:30:51;20.60;;;8.37;;
75823;SDS011;64457;51.976;9.834;2023-05-20T07:33:22;17.60;;;8.70;;
75823;SDS011;64457;51.976;9.834;2023-05-20T07:35:56;14.67;;;8.17;;
75823;SDS011;64457;51.976;9.834;2023-05-20T07:38:34;16.53;;;8.37;;
75823;SDS011;64457;51.976;9.834;2023-05-20T07:41:05;14.17;;;7.53;;
75823;SDS011;64457;51.976;9.834;2023-05-20T07:43:33;20.80;;;8.70;;
75823;SDS011;64457;51.976;9.834;2023-05-20T07:46:01;15.10;;;7.80;;
75823;SDS011;64457;51.976;9.834;2023-05-20T07:48:28;15.90;;;8.50;;
75823;SDS011;64457;51.976;9.834;2023-05-20T07:50:56;13.93;;;7.37;;
75823;SDS011;64457;51.976;9.834;2023-05-20T07:53:23;16.33;;;7.43;;
75823;SDS011;64457;51.976;9.834;2023-05-20T07:55:53;13.67;;;7.00;;
75823;SDS011;64457;51.976;9.834;2023-05-20T07:58:20;15.67;;;7.70;;
75823;SDS011;64457;51.976;9.834;2023-05-20T08:00:49;13.60;;;6.70;;
75823;SDS011;64457;51.976;9.834;2023-05-20T08:03:17;15.27;;;7.10;;
75823;SDS011;64457;51.976;9.834;2023-05-20T08:05:46;13.43;;;7.33;;
75823;SDS011;64457;51.976;9.834;2023-05-20T08:08:14;14.03;;;7.37;;
75823;SDS011;64457;51.976;9.834;2023-05-20T08:10:42;16.33;;;7.10;;
75823;SDS011;64457;51.976;9.834;2023-05-20T08:13:11;15.77;;;7.20;;
75823;SDS011;64457;51.976;9.834;2023-05-20T08:15:38;12.27;;;6.70;;
75823;SDS011;64457;51.976;9.834;2023-05-20T08:18:05;15.23;;;6.47;;
75823;SDS011;64457;51.976;9.834;2023-05-20T08:20:33;12.40;;;6.30;;
75823;SDS011;64457;51.976;9.834;2023-05-20T08:23:02;17.27;;;6.30;;
75823;SDS011;64457;51.976;9.834;2023-05-20T08:25:31;11.87;;;6.23;;
75823;SDS011;64457;51.976;9.834;2023-05-20T08:28:00;18.00;;;6.50;;
75823;SDS011;64457;51.976;9.834;2023-05-20T08:30:31;12.67;;;6.60;;
75823;SDS011;64457;51.976;9.834;2023-05-20T08:32:59;11.90;;;5.90;;
75823;SDS011;64457;51.976;9.834;2023-05-20T08:35:27;11.93;;;6.07;;
75823;SDS011;64457;51.976;9.834;2023-05-20T08:37:55;11.80;;;6.30;;
75823;SDS011;64457;51.976;9.834;2023-05-20T08:40:22;13.27;;;6.00;;
75823;SDS011;64457;51.976;9.834;2023-05-20T08:42:51;16.03;;;7.13;;
75823;SDS011;64457;51.976;9.834;2023-05-20T08:45:19;15.60;;;7.10;;
75823;SDS011;64457;51.976;9.834;2023-05-20T08:47:53;13.00;;;6.40;;
75823;SDS011;64457;51.976;9.834;2023-05-20T08:50:21;12.87;;;6.60;;
75823;SDS011;64457;51.976;9.834;2023-05-20T08:52:49;13.80;;;6.80;;
75823;SDS011;64457;51.976;9.834;2023-05-20T08:55:17;12.90;;;6.10;;
75823;SDS011;64457;51.976;9.834;2023-05-20T08:57:54;16.90;;;7.00;;
75823;SDS011;64457;51.976;9.834;2023-05-20T09:00:22;15.10;;;7.03;;
75823;SDS011;64457;51.976;9.834;2023-05-20T09:02:54;14.13;;;7.03;;
75823;SDS011;64457;51.976;9.834;2023-05-20T09:05:22;19.00;;;7.93;;
75823;SDS011;64457;51.976;9.834;2023-05-20T09:07:49;14.77;;;7.20;;
75823;SDS011;64457;51.976;9.834;2023-05-20T09:10:17;14.37;;;7.37;;
75823;SDS011;64457;51.976;9.834;2023-05-20T09:12:45;14.90;;;6.93;;
75823;SDS011;64457;51.976;9.834;2023-05-20T09:15:14;13.60;;;6.00;;
75823;SDS011;64457;51.976;9.834;2023-05-20T09:17:42;13.43;;;6.60;;
75823;SDS011;64457;51.976;9.834;2023-05-20T09:20:11;11.13;;;5.50;;
75823;SDS011;64457;51.976;9.834;2023-05-20T09:22:40;12.10;;;5.60;;
75823;SDS011;64457;51.976;9.834;2023-05-20T09:25:07;11.40;;;5.30;;
75823;SDS011;64457;51.976;9.834;2023-05-20T09:27:38;12.23;;;5.57;;
75823;SDS011;64457;51.976;9.834;2023-05-20T09:30:06;12.90;;;5.70;;
75823;SDS011;64457;51.976;9.834;2023-05-20T09:32:36;15.00;;;6.80;;
75823;SDS011;64457;51.976;9.834;2023-05-20T09:35:04;12.37;;;6.30;;
75823;SDS011;64457;51.976;9.834;2023-05-20T09:37:35;11.90;;;5.47;;
75823;SDS011;64457;51.976;9.834;2023-05-20T09:40:03;12.93;;;5.60;;
75823;SDS011;64457;51.976;9.834;2023-05-20T09:42:39;11.90;;;5.80;;
75823;SDS011;64457;51.976;9.834;2023-05-20T09:45:13;11.57;;;5.67;;
75823;SDS011;64457;51.976;9.834;2023-05-20T09:47:41;18.73;;;5.50;;
75823;SDS011;64457;51.976;9.834;2023-05-20T09:50:10;12.27;;;5.47;;
75823;SDS011;64457;51.976;9.834;2023-05-20T09:52:40;11.77;;;5.27;;
75823;SDS011;64457;51.976;9.834;2023-05-20T09:55:10;17.40;;;5.87;;
75823;SDS011;64457;51.976;9.834;2023-05-20T09:57:37;12.37;;;6.00;;
75823;SDS011;64457;51.976;9.834;2023-05-20T10:00:07;14.17;;;6.67;;
75823;SDS011;64457;51.976;9.834;2023-05-20T10:02:39;12.40;;;6.27;;
75823;SDS011;64457;51.976;9.834;2023-05-20T10:05:10;13.03;;;5.97;;
75823;SDS011;64457;51.976;9.834;2023-05-20T10:10:51;12.47;;;5.60;;
75823;SDS011;64457;51.976;9.834;2023-05-20T10:13:33;12.20;;;5.10;;
75823;SDS011;64457;51.976;9.834;2023-05-20T10:16:18;14.40;;;6.00;;
75823;SDS011;64457;51.976;9.834;2023-05-20T10:18:57;11.17;;;4.93;;
75823;SDS011;64457;51.976;9.834;2023-05-20T10:21:35;11.40;;;5.10;;
75823;SDS011;64457;51.976;9.834;2023-05-20T10:24:08;13.03;;;5.10;;
75823;SDS011;64457;51.976;9.834;2023-05-20T10:26:37;19.53;;;5.90;;
75823;SDS011;64457;51.976;9.834;2023-05-20T10:29:14;12.53;;;5.40;;
75823;SDS011;64457;51.976;9.834;2023-05-20T10:31:44;11.83;;;5.30;;
75823;SDS011;64457;51.976;9.834;2023-05-20T10:34:15;14.33;;;5.00;;
75823;SDS011;64457;51.976;9.834;2023-05-20T10:36:45;12.17;;;6.30;;
75823;SDS011;64457;51.976;9.834;2023-05-20T10:39:37;14.03;;;5.87;;
75823;SDS011;64457;51.976;9.834;2023-05-20T10:42:06;12.70;;;5.67;;
75823;SDS011;64457;51.976;9.834;2023-05-20T10:44:40;12.77;;;5.53;;
75823;SDS011;64457;51.976;9.834;2023-05-20T10:47:08;12.70;;;4.87;;
75823;SDS011;64457;51.976;9.834;2023-05-20T10:49:39;10.10;;;4.87;;
75823;SDS011;64457;51.976;9.834;2023-05-20T10:52:10;11.30;;;5.50;;
75823;SDS011;64457;51.976;9.834;2023-05-20T10:54:46;12.63;;;5.30;;
75823;SDS011;64457;51.976;9.834;2023-05-20T10:57:25;11.87;;;5.73;;
75823;SDS011;64457;51.976;9.834;2023-05-20T10:59:59;14.43;;;5.50;;
75823;SDS011;64457;51.976;9.834;2023-05-20T11:02:36;11.77;;;5.60;;
75823;SDS011;64457;51.976;9.834;2023-05-20T11:05:08;11.60;;;5.27;;
75823;SDS011;64457;51.976;9.834;2023-05-20T11:07:37;11.90;;;5.50;;
75823;SDS011;64457;51.976;9.834;2023-05-20T11:10:08;11.43;;;5.53;;
75823;SDS011;64457;51.976;9.834;2023-05-20T11:12:36;13.10;;;5.43;;
75823;SDS011;64457;51.976;9.834;2023-05-20T11:15:05;13.57;;;5.30;;
75823;SDS011;64457;51.976;9.834;2023-05-20T11:17:34;13.00;;;5.13;;
75823;SDS011;64457;51.976;9.834;2023-05-20T11:20:02;12.80;;;5.43;;
75823;SDS011;64457;51.976;9.834;2023-05-20T11:22:34;13.10;;;5.70;;
75823;SDS011;64457;51.976;9.834;2023-05-20T11:25:03;12.70;;;5.30;;
75823;SDS011;64457;51.976;9.834;2023-05-20T11:27:34;10.60;;;5.00;;
75823;SDS011;64457;51.976;9.834;2023-05-20T11:30:06;12.50;;;5.20;;
75823;SDS011;64457;51.976;9.834;2023-05-20T11:32:35;11.83;;;4.60;;
75823;SDS011;64457;51.976;9.834;2023-05-20T11:35:03;10.07;;;4.77;;
75823;SDS011;64457;51.976;9.834;2023-05-20T11:37:34;13.40;;;4.90;;
75823;SDS011;64457;51.976;9.834;2023-05-20T11:40:03;11.50;;;5.00;;
75823;SDS011;64457;51.976;9.834;2023-05-20T11:42:35;11.27;;;5.27;;
75823;SDS011;64457;51.976;9.834;2023-05-20T11:45:03;13.40;;;5.77;;
75823;SDS011;64457;51.976;9.834;2023-05-20T11:47:31;12.23;;;5.10;;
75823;SDS011;64457;51.976;9.834;2023-05-20T11:49:59;56.93;;;6.47;;
75823;SDS011;64457;51.976;9.834;2023-05-20T11:52:29;12.23;;;5.30;;
75823;SDS011;64457;51.976;9.834;2023-05-20T11:54:59;11.77;;;5.33;;
75823;SDS011;64457;51.976;9.834;2023-05-20T11:57:26;12.20;;;5.57;;
75823;SDS011;64457;51.976;9.834;2023-05-20T11:59:55;13.23;;;5.60;;
75823;SDS011;64457;51.976;9.834;2023-05-20T12:02:23;14.03;;;5.73;;
75823;SDS011;64457;51.976;9.834;2023-05-20T12:04:51;11.30;;;5.20;;
75823;SDS011;64457;51.976;9.834;2023-05-20T12:07:20;12.40;;;5.10;;
75823;SDS011;64457;51.976;9.834;2023-05-20T12:09:47;12.87;;;5.70;;
75823;SDS011;64457;51.976;9.834;2023-05-20T12:12:15;13.60;;;5.87;;
75823;SDS011;64457;51.976;9.834;2023-05-20T12:14:44;12.83;;;6.30;;
75823;SDS011;64457;51.976;9.834;2023-05-20T12:17:13;14.00;;;6.50;;
75823;SDS011;64457;51.976;9.834;2023-05-20T12:19:41;13.97;;;6.60;;
75823;SDS011;64457;51.976;9.834;2023-05-20T12:22:08;12.60;;;6.00;;
75823;SDS011;64457;51.976;9.834;2023-05-20T12:24:36;15.33;;;6.93;;
75823;SDS011;64457;51.976;9.834;2023-05-20T12:27:04;16.20;;;7.30;;
75823;SDS011;64457;51.976;9.834;2023-05-20T12:29:32;13.60;;;6.57;;
75823;SDS011;64457;51.976;9.834;2023-05-20T12:31:59;13.27;;;5.87;;
75823;SDS011;64457;51.976;9.834;2023-05-20T12:34:29;15.33;;;6.50;;
75823;SDS011;64457;51.976;9.834;2023-05-20T12:36:57;14.97;;;6.90;;
75823;SDS011;64457;51.976;9.834;2023-05-20T12:39:25;14.60;;;6.80;;
75823;SDS011;64457;51.976;9.834;2023-05-20T12:41:53;15.27;;;7.00;;
75823;SDS011;64457;51.976;9.834;2023-05-20T12:44:25;20.90;;;6.43;;
75823;SDS011;64457;51.976;9.834;2023-05-20T12:46:53;15.00;;;6.80;;
75823;SDS011;64457;51.976;9.834;2023-05-20T12:49:22;14.20;;;6.73;;
75823;SDS011;64457;51.976;9.834;2023-05-20T12:51:51;16.23;;;6.10;;
75823;SDS011;64457;51.976;9.834;2023-05-20T12:54:19;14.20;;;6.80;;
75823;SDS011;64457;51.976;9.834;2023-05-20T12:56:46;15.03;;;6.67;;
75823;SDS011;64457;51.976;9.834;2023-05-20T12:59:14;14.27;;;5.80;;
75823;SDS011;64457;51.976;9.834;2023-05-20T13:01:41;15.80;;;6.77;;
75823;SDS011;64457;51.976;9.834;2023-05-20T13:04:09;15.20;;;6.67;;
75823;SDS011;64457;51.976;9.834;2023-05-20T13:06:37;13.60;;;6.40;;
75823;SDS011;64457;51.976;9.834;2023-05-20T13:09:06;14.17;;;6.47;;
75823;SDS011;64457;51.976;9.834;2023-05-20T13:11:34;19.93;;;7.20;;
75823;SDS011;64457;51.976;9.834;2023-05-20T13:14:01;14.80;;;6.50;;
75823;SDS011;64457;51.976;9.834;2023-05-20T13:16:32;13.23;;;6.33;;
75823;SDS011;64457;51.976;9.834;2023-05-20T13:19:00;14.53;;;7.20;;
75823;SDS011;64457;51.976;9.834;2023-05-20T13:21:27;14.80;;;6.77;;
75823;SDS011;64457;51.976;9.834;2023-05-20T13:23:56;18.23;;;8.17;;
75823;SDS011;64457;51.976;9.834;2023-05-20T13:26:26;14.97;;;6.93;;
75823;SDS011;64457;51.976;9.834;2023-05-20T13:28:54;16.60;;;7.47;;
75823;SDS011;64457;51.976;9.834;2023-05-20T13:31:22;16.37;;;7.37;;
75823;SDS011;64457;51.976;9.834;2023-05-20T13:33:51;14.33;;;6.97;;
75823;SDS011;64457;51.976;9.834;2023-05-20T13:36:19;18.30;;;7.43;;
75823;SDS011;64457;51.976;9.834;2023-05-20T13:38:47;15.17;;;6.80;;
75823;SDS011;64457;51.976;9.834;2023-05-20T13:41:18;16.03;;;7.60;;
75823;SDS011;64457;51.976;9.834;2023-05-20T13:43:48;15.70;;;7.40;;
75823;SDS011;64457;51.976;9.834;2023-05-20T13:46:19;14.83;;;7.40;;
75823;SDS011;64457;51.976;9.834;2023-05-20T13:48:48;16.23;;;7.93;;
75823;SDS011;64457;51.976;9.834;2023-05-20T13:51:16;19.67;;;7.97;;
75823;SDS011;64457;51.976;9.834;2023-05-20T13:53:44;16.70;;;8.03;;
75823;SDS011;64457;51.976;9.834;2023-05-20T13:56:11;19.47;;;8.27;;
75823;SDS011;64457;51.976;9.834;2023-05-20T13:58:39;18.57;;;8.07;;
75823;SDS011;64457;51.976;9.834;2023-05-20T14:01:09;18.20;;;8.47;;
75823;SDS011;64457;51.976;9.834;2023-05-20T14:03:37;17.73;;;7.80;;
75823;SDS011;64457;51.976;9.834;2023-05-20T14:06:05;16.00;;;8.47;;
75823;SDS011;64457;51.976;9.834;2023-05-20T14:08:32;16.90;;;8.40;;
75823;SDS011;64457;51.976;9.834;2023-05-20T14:11:00;16.87;;;8.33;;
75823;SDS011;64457;51.976;9.834;2023-05-20T14:13:28;19.63;;;8.40;;
75823;SDS011;64457;51.976;9.834;2023-05-20T14:15:56;15.00;;;7.20;;
75823;SDS011;64457;51.976;9.834;2023-05-20T14:18:26;17.47;;;8.40;;
75823;SDS011;64457;51.976;9.834;2023-05-20T14:20:54;19.20;;;8.13;;
75823;SDS011;64457;51.976;9.834;2023-05-20T14:23:22;16.00;;;7.80;;
75823;SDS011;64457;51.976;9.834;2023-05-20T14:25:50;16.37;;;8.20;;
75823;SDS011;64457;51.976;9.834;2023-05-20T14:28:18;15.33;;;8.07;;
75823;SDS011;64457;51.976;9.834;2023-05-20T14:30:46;19.77;;;8.70;;
75823;SDS011;64457;51.976;9.834;2023-05-20T14:33:14;17.03;;;8.50;;
75823;SDS011;64457;51.976;9.834;2023-05-20T14:35:43;16.77;;;8.07;;
75823;SDS011;64457;51.976;9.834;2023-05-20T14:38:12;17.40;;;8.70;;
75823;SDS011;64457;51.976;9.834;2023-05-20T14:40:39;15.93;;;8.20;;
75823;SDS011;64457;51.976;9.834;2023-05-20T14:43:06;16.00;;;7.83;;
75823;SDS011;64457;51.976;9.834;2023-05-20T14:45:34;19.47;;;8.00;;
75823;SDS011;64457;51.976;9.834;2023-05-20T14:48:02;17.93;;;9.20;;